Terminal Aerodrome Forecast
Issued by NWS Billings, MT

Home | Current Version | Previous Version | Text Only | Print | Product List | Glossary On
Versions: 1 2 3 4 5 6 7 8 9 10 11 12 13 14 15 16 17 18 19 20 21 22 23 24 25 26 27 28 29 30 31 32
000
FTUS45 KBYZ 281214 AAA
TAFMLS
TAF AMD
KMLS 281214Z 2812/2912 26006KT 4SM BR SCT002
      TEMPO 2812/2815 1SM BR VV002
     FM281500 27005KT P6SM BKN080
     FM281800 30012KT P6SM VCTS BKN080CB
     FM290000 34011KT P6SM VCTS BKN080CB
     FM290700 02007KT P6SM VCSH BKN080 WS008/05031KT=

USA.gov is the U.S. government's official web portal to all federal, state and local government web resources and services.